Time;durP1;ratioP1;P1;durP2;ratioP2;P2;SDS_P1;SDS_P2;PMS_P1;PMS_P2;Temp;Humidity;BMP_temperature;BMP_pressure;BME280_temperature;BME280_humidity;BME280_pressure;Samples;Min_cycle;Max_cycle;Signal;HPM_P1;HPM_P2
2023/07/05 00:02:00;;;;;;;8.23;3.58;;;14.40;99.90;;;;;;5025608;28;20114;-80
2023/07/05 00:04:25;;;;;;;8.85;3.90;;;14.50;99.90;;;;;;5007204;28;20045;-80
2023/07/05 00:06:52;;;;;;;6.65;4.00;;;14.50;99.90;;;;;;5021990;28;20423;-80
2023/07/05 00:09:18;;;;;;;9.02;4.45;;;14.50;99.90;;;;;;5010111;28;20033;-80
2023/07/05 00:11:44;;;;;;;10.90;3.97;;;14.50;99.90;;;;;;5036085;28;20333;-80
2023/07/05 00:14:09;;;;;;;6.45;4.47;;;14.50;99.90;;;;;;5009027;28;20052;-80
2023/07/05 00:16:35;;;;;;;9.50;4.43;;;14.60;99.90;;;;;;5009382;28;20099;-80
2023/07/05 00:19:00;;;;;;;7.90;4.05;;;14.60;99.90;;;;;;5022905;28;20440;-80
2023/07/05 00:21:26;;;;;;;6.82;4.10;;;14.60;99.90;;;;;;5033656;28;20068;-81
2023/07/05 00:23:52;;;;;;;7.95;4.28;;;14.60;99.90;;;;;;5026255;28;20037;-80
2023/07/05 00:26:17;;;;;;;7.75;4.25;;;14.70;99.90;;;;;;5022928;28;20064;-80
2023/07/05 00:28:43;;;;;;;8.43;4.40;;;14.70;99.90;;;;;;5022292;28;20072;-79
2023/07/05 00:31:09;;;;;;;7.22;4.30;;;14.60;99.90;;;;;;5021531;28;20033;-80
2023/07/05 00:33:34;;;;;;;12.73;5.05;;;14.60;99.90;;;;;;5023018;28;20053;-80
2023/07/05 00:36:00;;;;;;;7.75;4.70;;;14.60;99.90;;;;;;5012083;28;20041;-80
2023/07/05 00:38:26;;;;;;;10.05;5.15;;;14.60;99.90;;;;;;5036356;28;20030;-80
2023/07/05 00:40:52;;;;;;;7.20;4.20;;;14.60;99.90;;;;;;5023855;28;20816;-80
2023/07/05 00:43:19;;;;;;;10.48;5.28;;;14.70;99.90;;;;;;5021996;28;20045;-80
2023/07/05 00:45:51;;;;;;;8.45;5.03;;;14.70;99.90;;;;;;5024314;28;20044;-79
2023/07/05 00:48:35;;;;;;;10.45;4.88;;;14.70;99.90;;;;;;5022759;28;20033;-79
2023/07/05 00:51:05;;;;;;;9.38;4.85;;;14.70;99.90;;;;;;5018825;28;20504;-79
2023/07/05 00:53:36;;;;;;;9.20;4.88;;;14.70;99.90;;;;;;5049970;28;20133;-79
2023/07/05 00:56:10;;;;;;;9.65;5.57;;;14.70;99.90;;;;;;5035855;28;20042;-79
2023/07/05 00:58:37;;;;;;;11.52;5.15;;;14.70;99.90;;;;;;5019724;28;20025;-79
2023/07/05 01:01:03;;;;;;;10.10;5.03;;;14.70;99.90;;;;;;5004500;28;20796;-79
2023/07/05 01:03:30;;;;;;;11.57;5.38;;;14.70;99.90;;;;;;5035681;28;20128;-79
2023/07/05 01:05:58;;;;;;;11.35;5.82;;;14.70;99.90;;;;;;5008129;28;20021;-79
2023/07/05 01:08:24;;;;;;;8.98;4.68;;;14.70;99.90;;;;;;5020360;28;20025;-79
2023/07/05 01:11:00;;;;;;;8.05;5.22;;;14.80;99.90;;;;;;5037050;28;20048;-79
2023/07/05 01:13:36;;;;;;;10.88;5.20;;;14.70;99.90;;;;;;5020744;28;20033;-79
2023/07/05 01:16:08;;;;;;;6.70;5.32;;;14.80;99.90;;;;;;5027788;28;20395;-79
2023/07/05 01:18:46;;;;;;;10.13;5.75;;;14.80;99.90;;;;;;5045719;28;20044;-79
2023/07/05 01:21:43;;;;;;;10.45;6.28;;;14.70;99.90;;;;;;5021571;28;20037;-81
2023/07/05 01:24:40;;;;;;;12.07;6.43;;;14.70;99.90;;;;;;5004988;28;20044;-82
2023/07/05 01:27:50;;;;;;;11.38;6.85;;;14.80;99.90;;;;;;5034766;28;20182;-82
2023/07/05 01:30:22;;;;;;;16.17;7.10;;;14.70;99.90;;;;;;5023356;28;20128;-82
2023/07/05 01:32:55;;;;;;;11.85;7.30;;;14.80;99.90;;;;;;5032588;28;20197;-81
2023/07/05 01:35:25;;;;;;;15.40;7.80;;;14.70;99.90;;;;;;5052576;28;20049;-82
2023/07/05 01:37:51;;;;;;;15.43;8.18;;;14.70;99.90;;;;;;5038595;28;20151;-82
2023/07/05 01:40:25;;;;;;;17.13;8.18;;;14.70;99.90;;;;;;5025837;28;20057;-82
2023/07/05 01:42:58;;;;;;;12.27;8.43;;;14.70;99.90;;;;;;5028715;28;20667;-82
2023/07/05 01:45:39;;;;;;;14.15;8.85;;;14.70;99.90;;;;;;5026314;28;20041;-82
2023/07/05 01:48:27;;;;;;;17.33;8.68;;;14.70;99.90;;;;;;5003918;28;20033;-82
2023/07/05 01:51:02;;;;;;;28.25;8.48;;;14.60;99.90;;;;;;5024411;28;20045;-82
2023/07/05 01:53:56;;;;;;;11.32;8.40;;;14.70;99.90;;;;;;5020534;28;20117;-82
2023/07/05 01:56:30;;;;;;;13.50;8.57;;;14.70;99.90;;;;;;5053935;28;20410;-82
2023/07/05 01:58:58;;;;;;;14.18;8.60;;;14.70;99.90;;;;;;5053765;28;20314;-83
2023/07/05 02:01:26;;;;;;;16.42;8.57;;;14.70;99.90;;;;;;5026638;28;20041;-82
2023/07/05 02:03:53;;;;;;;14.27;9.20;;;14.70;99.90;;;;;;5017549;28;20053;-82
2023/07/05 02:06:20;;;;;;;16.02;9.15;;;14.60;99.90;;;;;;5019765;28;20061;-82
2023/07/05 02:08:50;;;;;;;11.55;7.72;;;14.60;99.90;;;;;;5028688;28;20042;-81
2023/07/05 02:11:15;;;;;;;17.55;8.65;;;14.60;99.90;;;;;;5022975;28;20036;-81
2023/07/05 02:13:41;;;;;;;13.75;8.90;;;14.60;99.90;;;;;;5038149;28;20041;-80
2023/07/05 02:16:07;;;;;;;14.63;8.93;;;14.60;99.90;;;;;;5024359;28;20224;-81
2023/07/05 02:18:32;;;;;;;16.00;8.73;;;14.60;99.90;;;;;;5009659;28;20044;-81
2023/07/05 02:20:59;;;;;;;15.77;9.05;;;14.60;99.90;;;;;;5021383;28;20045;-80
2023/07/05 02:23:24;;;;;;;15.57;8.73;;;14.60;99.90;;;;;;5026790;28;20045;-80
2023/07/05 02:25:51;;;;;;;13.57;8.75;;;14.60;99.90;;;;;;5027159;28;20526;-80
2023/07/05 02:28:17;;;;;;;16.88;9.00;;;14.60;99.90;;;;;;5024296;28;20047;-80
2023/07/05 02:30:43;;;;;;;13.77;9.30;;;14.60;99.90;;;;;;5025676;28;20041;-81
2023/07/05 02:33:09;;;;;;;15.77;8.88;;;14.60;99.90;;;;;;5053279;28;20029;-81
2023/07/05 02:35:39;;;;;;;17.83;9.23;;;14.60;99.90;;;;;;5001009;28;20083;-81
2023/07/05 02:38:05;;;;;;;16.08;9.48;;;14.60;99.90;;;;;;5024743;28;20449;-82
2023/07/05 02:40:31;;;;;;;13.32;9.20;;;14.60;99.90;;;;;;5009915;28;20229;-81
2023/07/05 02:42:59;;;;;;;13.23;8.93;;;14.60;99.90;;;;;;5026792;28;20049;-82
2023/07/05 02:45:28;;;;;;;14.27;8.98;;;14.60;99.90;;;;;;5052489;28;20033;-82
2023/07/05 02:47:55;;;;;;;15.18;9.73;;;14.70;99.90;;;;;;5027656;28;20080;-80
2023/07/05 02:50:20;;;;;;;14.07;9.38;;;14.70;99.90;;;;;;5021934;28;20127;-80
2023/07/05 02:52:46;;;;;;;14.27;9.63;;;14.60;99.90;;;;;;5025328;28;20888;-80
2023/07/05 02:55:12;;;;;;;14.55;9.85;;;14.60;99.90;;;;;;5027333;28;20041;-81
2023/07/05 02:57:38;;;;;;;16.73;9.38;;;14.60;99.90;;;;;;5020494;28;20247;-81
2023/07/05 03:00:06;;;;;;;18.13;10.27;;;14.60;99.90;;;;;;5039271;28;20037;-81
2023/07/05 03:02:32;;;;;;;16.10;9.07;;;14.60;99.90;;;;;;5039326;28;20417;-81
2023/07/05 03:04:58;;;;;;;18.48;9.60;;;14.60;99.90;;;;;;5036158;28;20041;-81
2023/07/05 03:07:24;;;;;;;21.13;8.80;;;14.60;99.90;;;;;;5005563;28;20068;-81
2023/07/05 03:09:49;;;;;;;14.30;9.18;;;14.60;99.90;;;;;;5023732;28;20112;-82
2023/07/05 03:12:15;;;;;;;20.27;9.57;;;14.60;99.90;;;;;;5054811;28;20059;-81
2023/07/05 03:14:41;;;;;;;16.00;9.18;;;14.70;99.90;;;;;;5020952;28;20335;-81
2023/07/05 03:17:07;;;;;;;16.98;8.95;;;14.60;99.90;;;;;;5011192;28;20045;-81
2023/07/05 03:19:33;;;;;;;14.05;8.77;;;14.60;99.90;;;;;;5036311;28;20552;-81
2023/07/05 03:21:59;;;;;;;11.68;8.90;;;14.60;99.90;;;;;;5036660;28;20040;-80
2023/07/05 03:24:25;;;;;;;16.30;9.85;;;14.60;99.90;;;;;;5037701;28;20044;-80
2023/07/05 03:26:52;;;;;;;14.35;9.30;;;14.60;99.90;;;;;;5025896;28;20040;-80
2023/07/05 03:29:17;;;;;;;14.10;8.60;;;14.60;99.90;;;;;;5026106;28;20116;-81
2023/07/05 03:31:43;;;;;;;16.98;9.27;;;14.60;99.90;;;;;;5005324;28;20470;-80
2023/07/05 03:34:09;;;;;;;16.25;9.68;;;14.70;99.90;;;;;;5039398;28;20037;-81
2023/07/05 03:36:34;;;;;;;13.57;8.63;;;14.70;99.90;;;;;;5034898;28;20044;-80
2023/07/05 03:39:00;;;;;;;18.52;9.10;;;14.70;99.90;;;;;;5026363;28;20064;-80
2023/07/05 03:41:26;;;;;;;15.40;9.18;;;14.70;99.90;;;;;;5021982;28;20080;-80
2023/07/05 03:43:58;;;;;;;13.90;9.25;;;14.70;99.90;;;;;;5029030;28;20044;-80
2023/07/05 03:46:24;;;;;;;13.55;9.40;;;14.70;99.90;;;;;;5018403;28;20949;-80
2023/07/05 03:48:50;;;;;;;13.70;8.77;;;14.80;99.90;;;;;;5040904;28;20033;-80
2023/07/05 03:51:18;;;;;;;14.98;9.95;;;14.80;99.90;;;;;;5020104;28;20569;-80
2023/07/05 03:53:52;;;;;;;15.25;10.43;;;14.80;99.90;;;;;;5023735;28;20366;-81
2023/07/05 03:56:21;;;;;;;15.45;9.40;;;14.80;99.90;;;;;;5035314;28;20030;-80
2023/07/05 03:58:47;;;;;;;16.88;9.38;;;14.80;99.90;;;;;;5022269;28;20044;-81
2023/07/05 04:01:23;;;;;;;15.18;9.20;;;14.80;99.90;;;;;;5027839;28;20116;-81
2023/07/05 04:03:53;;;;;;;16.17;8.52;;;14.90;99.90;;;;;;5023851;28;20259;-81
2023/07/05 04:06:20;;;;;;;11.73;8.82;;;14.80;99.90;;;;;;5050643;28;20835;-81
2023/07/05 04:08:46;;;;;;;17.17;9.55;;;14.90;99.90;;;;;;5054804;28;20254;-80
2023/07/05 04:11:12;;;;;;;14.75;9.35;;;14.90;99.90;;;;;;5039080;28;20067;-80
2023/07/05 04:13:38;;;;;;;20.40;9.55;;;14.90;99.90;;;;;;5026503;28;20458;-80
2023/07/05 04:16:10;;;;;;;13.55;8.30;;;15.00;99.90;;;;;;5040322;28;20040;-80
2023/07/05 04:18:37;;;;;;;16.05;9.20;;;15.00;99.90;;;;;;5006696;28;20135;-80
2023/07/05 04:21:04;;;;;;;11.48;8.50;;;15.10;99.90;;;;;;5022200;28;20463;-80
2023/07/05 04:23:29;;;;;;;13.75;9.20;;;15.10;99.90;;;;;;5024958;28;20123;-80
2023/07/05 04:26:03;;;;;;;15.23;8.80;;;15.20;99.90;;;;;;5024295;28;20668;-80
2023/07/05 04:28:30;;;;;;;14.20;8.98;;;15.30;99.90;;;;;;5032757;28;20033;-80
2023/07/05 04:30:56;;;;;;;14.20;8.95;;;15.30;99.90;;;;;;5024250;28;20041;-79
2023/07/05 04:33:22;;;;;;;11.95;8.57;;;15.30;99.90;;;;;;5033929;28;20480;-79
2023/07/05 04:35:56;;;;;;;10.80;8.18;;;15.30;99.90;;;;;;5021283;28;20026;-79
2023/07/05 04:38:22;;;;;;;13.30;8.65;;;15.40;99.90;;;;;;5004158;28;20120;-79
2023/07/05 04:40:48;;;;;;;16.13;9.23;;;15.40;99.90;;;;;;5049833;28;20135;-80
2023/07/05 04:43:14;;;;;;;16.40;8.90;;;15.40;99.90;;;;;;5025906;28;20053;-80
2023/07/05 04:45:40;;;;;;;10.25;7.03;;;15.40;99.90;;;;;;5003140;28;20092;-80
2023/07/05 04:48:06;;;;;;;10.32;6.75;;;15.40;99.90;;;;;;5023600;28;20107;-80
2023/07/05 04:50:32;;;;;;;10.45;6.80;;;15.40;99.90;;;;;;5034864;28;20032;-80
2023/07/05 04:52:59;;;;;;;9.02;6.75;;;15.40;99.90;;;;;;5022961;28;20040;-80
2023/07/05 04:55:24;;;;;;;9.38;6.22;;;15.40;99.90;;;;;;5031547;28;20637;-80
2023/07/05 04:57:50;;;;;;;8.38;5.03;;;15.30;99.90;;;;;;5022556;28;20285;-80
2023/07/05 05:00:16;;;;;;;10.88;5.05;;;15.30;99.90;;;;;;5038615;28;20045;-80
2023/07/05 05:02:42;;;;;;;10.82;5.30;;;15.30;99.90;;;;;;5001085;28;20171;-80
2023/07/05 05:05:08;;;;;;;9.15;4.88;;;15.40;99.90;;;;;;5023635;28;20041;-79
2023/07/05 05:07:34;;;;;;;8.70;5.03;;;15.30;99.90;;;;;;5021259;28;20460;-80
2023/07/05 05:10:00;;;;;;;8.52;4.55;;;15.20;99.90;;;;;;5021620;28;20278;-80
2023/07/05 05:12:27;;;;;;;6.50;4.28;;;15.10;99.90;;;;;;5038106;28;20033;-80
2023/07/05 05:14:52;;;;;;;6.47;3.60;;;15.10;99.90;;;;;;5019766;28;20045;-80
2023/07/05 05:17:18;;;;;;;6.70;3.72;;;15.00;99.90;;;;;;5021068;28;20390;-80
2023/07/05 05:19:44;;;;;;;7.40;3.83;;;14.90;99.90;;;;;;5027463;28;20068;-80
2023/07/05 05:22:11;;;;;;;6.13;3.88;;;15.00;99.90;;;;;;5026201;28;20126;-79
2023/07/05 05:24:37;;;;;;;6.10;3.75;;;15.00;99.90;;;;;;5022505;28;20113;-80
2023/07/05 05:27:03;;;;;;;4.88;3.40;;;14.90;99.90;;;;;;5015376;28;20401;-80
2023/07/05 05:29:30;;;;;;;8.63;3.63;;;14.90;99.90;;;;;;5020646;28;20043;-79
2023/07/05 05:31:56;;;;;;;5.22;3.95;;;15.10;99.90;;;;;;5024955;28;20712;-80
2023/07/05 05:34:26;;;;;;;5.63;4.13;;;15.20;99.90;;;;;;5020426;28;20041;-79
2023/07/05 05:36:52;;;;;;;6.55;4.25;;;15.20;99.90;;;;;;5015933;28;20037;-80
2023/07/05 05:39:18;;;;;;;8.20;4.50;;;15.30;99.90;;;;;;5023229;28;20033;-79
2023/07/05 05:41:44;;;;;;;5.70;3.80;;;15.40;99.90;;;;;;5024621;28;20114;-79
2023/07/05 05:44:09;;;;;;;6.68;3.95;;;15.30;99.90;;;;;;5037239;28;20044;-80
2023/07/05 05:46:36;;;;;;;6.25;4.05;;;15.50;99.90;;;;;;5006703;28;20076;-80
2023/07/05 05:49:01;;;;;;;7.68;3.95;;;15.40;99.90;;;;;;5020879;28;20041;-79
2023/07/05 05:51:27;;;;;;;7.20;4.10;;;15.40;99.90;;;;;;5008218;28;20485;-80
2023/07/05 05:53:53;;;;;;;6.00;4.30;;;15.40;99.90;;;;;;5024347;28;20049;-79
2023/07/05 05:56:19;;;;;;;10.27;4.53;;;15.40;99.90;;;;;;5019411;28;20072;-80
2023/07/05 05:58:44;;;;;;;6.57;3.92;;;15.30;99.90;;;;;;5035917;28;21477;-80
2023/07/05 06:01:12;;;;;;;7.00;4.32;;;15.40;99.90;;;;;;5034245;28;20129;-80
2023/07/05 06:03:38;;;;;;;6.80;4.05;;;15.30;99.90;;;;;;5020485;28;20041;-80
2023/07/05 06:06:04;;;;;;;5.10;3.92;;;15.50;99.90;;;;;;4999931;28;20030;-80
2023/07/05 06:08:29;;;;;;;7.40;3.80;;;15.70;99.90;;;;;;5022315;28;20120;-80
2023/07/05 06:10:57;;;;;;;4.93;3.33;;;15.60;99.90;;;;;;5020499;28;20132;-79
2023/07/05 06:13:24;;;;;;;5.82;3.80;;;15.60;99.90;;;;;;5024119;28;20587;-80
2023/07/05 06:15:58;;;;;;;6.43;3.72;;;15.50;99.90;;;;;;5010629;28;20484;-80
2023/07/05 06:18:25;;;;;;;5.30;3.63;;;15.40;99.90;;;;;;5026937;28;20342;-80
2023/07/05 06:20:51;;;;;;;5.28;3.33;;;15.40;99.90;;;;;;5018460;28;20461;-79
2023/07/05 06:23:17;;;;;;;4.75;3.55;;;15.40;99.90;;;;;;5023840;28;20112;-80
2023/07/05 06:25:47;;;;;;;6.78;3.38;;;15.30;99.90;;;;;;5029171;28;20037;-80
2023/07/05 06:28:14;;;;;;;4.72;3.58;;;15.60;99.90;;;;;;5021981;28;20034;-80
2023/07/05 06:30:41;;;;;;;5.20;3.40;;;15.50;99.90;;;;;;5009211;28;20045;-80
2023/07/05 06:33:07;;;;;;;4.50;3.20;;;15.60;99.90;;;;;;5025260;28;20051;-81
2023/07/05 06:35:32;;;;;;;7.20;3.50;;;15.50;99.90;;;;;;5038150;28;20041;-80
2023/07/05 06:37:58;;;;;;;5.55;3.30;;;15.70;99.90;;;;;;5036083;28;20033;-80
2023/07/05 06:40:24;;;;;;;6.03;3.30;;;15.80;99.90;;;;;;5039892;28;20397;-80
2023/07/05 06:42:49;;;;;;;4.05;3.08;;;16.00;99.90;;;;;;5021417;28;20084;-80
2023/07/05 06:45:15;;;;;;;4.13;3.15;;;15.90;99.90;;;;;;5021631;28;20075;-80
2023/07/05 06:47:41;;;;;;;5.60;3.20;;;15.80;99.90;;;;;;5013252;28;20078;-80
2023/07/05 06:50:08;;;;;;;5.65;3.30;;;15.80;99.90;;;;;;4994448;28;20455;-80
2023/07/05 06:52:34;;;;;;;7.50;3.50;;;15.70;99.90;;;;;;5026829;28;20060;-80
2023/07/05 06:55:00;;;;;;;5.50;3.22;;;15.50;99.90;;;;;;5028845;28;20512;-80
2023/07/05 06:57:25;;;;;;;4.45;3.08;;;15.70;99.90;;;;;;5050704;28;20431;-80
2023/07/05 06:59:51;;;;;;;6.63;3.25;;;15.90;99.90;;;;;;5053675;28;20051;-80
2023/07/05 07:02:17;;;;;;;4.80;3.20;;;16.10;99.90;;;;;;5027202;28;20045;-80
2023/07/05 07:04:43;;;;;;;8.13;2.90;;;16.10;99.90;;;;;;5049306;28;20280;-80
2023/07/05 07:07:10;;;;;;;4.82;3.20;;;16.00;99.90;;;;;;5017001;28;20120;-80
2023/07/05 07:09:45;;;;;;;4.47;3.10;;;16.10;99.90;;;;;;5012719;28;20037;-80
2023/07/05 07:12:11;;;;;;;5.18;2.75;;;16.30;99.90;;;;;;5040302;28;20117;-80
2023/07/05 07:14:40;;;;;;;6.22;2.80;;;16.40;99.90;;;;;;5026853;28;20038;-80
2023/07/05 07:17:05;;;;;;;5.57;3.10;;;16.30;99.90;;;;;;5018072;28;20063;-80
2023/07/05 07:19:31;;;;;;;5.28;3.25;;;16.60;99.90;;;;;;5052308;28;20501;-80
2023/07/05 07:21:57;;;;;;;6.07;2.83;;;16.50;99.90;;;;;;5050803;28;20073;-80
2023/07/05 07:24:23;;;;;;;4.10;2.70;;;16.20;99.90;;;;;;5008837;28;20040;-80
2023/07/05 07:26:51;;;;;;;4.95;3.03;;;15.90;99.90;;;;;;5026950;28;20029;-80
2023/07/05 07:29:17;;;;;;;5.22;2.70;;;15.80;99.90;;;;;;5031754;28;20041;-80
2023/07/05 07:31:42;;;;;;;4.20;2.72;;;16.00;99.90;;;;;;5010942;28;20882;-80
2023/07/05 07:34:08;;;;;;;5.80;3.13;;;16.50;99.90;;;;;;5032781;28;20096;-80
2023/07/05 07:36:35;;;;;;;6.22;3.00;;;16.50;99.90;;;;;;5042360;28;20285;-81
2023/07/05 07:39:02;;;;;;;4.32;2.78;;;16.30;99.90;;;;;;5024343;28;20327;-82
2023/07/05 07:41:33;;;;;;;4.35;2.67;;;16.30;99.90;;;;;;5003183;28;20057;-82
2023/07/05 07:44:01;;;;;;;3.63;2.60;;;16.00;99.90;;;;;;5026731;28;20129;-82
2023/07/05 07:46:28;;;;;;;4.63;2.72;;;15.50;99.90;;;;;;5027623;28;20037;-82
2023/07/05 07:48:57;;;;;;;5.60;2.60;;;15.30;99.90;;;;;;5026162;28;20037;-81
2023/07/05 07:51:26;;;;;;;3.83;2.40;;;15.10;99.90;;;;;;5016078;28;20037;-81
2023/07/05 07:53:52;;;;;;;3.47;2.30;;;14.90;99.90;;;;;;5009835;28;20115;-82
2023/07/05 07:56:20;;;;;;;3.40;2.28;;;14.70;99.90;;;;;;5016555;28;20653;-82
2023/07/05 07:58:54;;;;;;;6.38;2.35;;;14.60;99.90;;;;;;5036428;28;20112;-82
2023/07/05 08:01:26;;;;;;;4.97;1.90;;;14.40;99.90;;;;;;5051475;28;20125;-82
2023/07/05 08:03:53;;;;;;;1.58;1.33;;;14.10;99.90;;;;;;5052779;28;20451;-81
2023/07/05 08:06:20;;;;;;;2.47;1.60;;;14.00;99.90;;;;;;5024341;28;20033;-81
2023/07/05 08:08:46;;;;;;;3.85;1.67;;;14.00;99.90;;;;;;5005265;28;20045;-82
2023/07/05 08:11:11;;;;;;;2.05;1.10;;;13.80;99.90;;;;;;5036906;28;20460;-81
2023/07/05 08:13:40;;;;;;;3.00;1.23;;;13.80;99.90;;;;;;5033961;28;20038;-81
2023/07/05 08:16:08;;;;;;;3.28;1.15;;;13.70;99.90;;;;;;5032083;28;20052;-81
2023/07/05 08:18:33;;;;;;;2.25;0.93;;;13.60;99.90;;;;;;5017594;28;20049;-81
2023/07/05 08:20:59;;;;;;;1.27;0.98;;;13.50;99.90;;;;;;5028012;28;20029;-82
2023/07/05 08:23:25;;;;;;;2.85;0.90;;;13.30;99.90;;;;;;5005954;28;20837;-81
2023/07/05 08:25:56;;;;;;;2.03;1.00;;;13.20;99.90;;;;;;5017478;28;20041;-82
2023/07/05 08:28:23;;;;;;;1.15;0.80;;;13.00;99.90;;;;;;5034104;28;20041;-81
2023/07/05 08:31:00;;;;;;;1.70;0.90;;;13.00;99.90;;;;;;4999362;28;20049;-81
2023/07/05 08:33:31;;;;;;;1.73;0.90;;;13.10;99.90;;;;;;5053197;28;20259;-81
2023/07/05 08:36:16;;;;;;;1.13;0.80;;;12.90;99.90;;;;;;5015989;28;20096;-81
2023/07/05 08:38:50;;;;;;;0.80;0.60;;;13.00;99.90;;;;;;5053567;28;20365;-81
2023/07/05 08:41:16;;;;;;;1.58;0.70;;;12.90;99.90;;;;;;5003476;28;20053;-81
2023/07/05 08:44:04;;;;;;;4.35;1.00;;;12.80;99.90;;;;;;5023263;28;20048;-81
2023/07/05 08:46:31;;;;;;;3.53;1.05;;;12.80;99.90;;;;;;5028388;28;20041;-82
2023/07/05 08:49:06;;;;;;;1.13;0.73;;;12.60;99.90;;;;;;5025853;28;20183;-81
2023/07/05 08:51:33;;;;;;;1.33;0.90;;;12.70;99.90;;;;;;5046502;28;20137;-82
2023/07/05 08:54:02;;;;;;;1.63;1.10;;;12.60;99.90;;;;;;5023791;28;20041;-82
2023/07/05 08:56:39;;;;;;;2.35;0.90;;;12.60;99.90;;;;;;4999103;28;20161;-82
2023/07/05 08:59:29;;;;;;;1.10;0.75;;;12.70;99.90;;;;;;5022435;28;20113;-81
2023/07/05 09:01:56;;;;;;;2.67;0.85;;;12.60;99.90;;;;;;4998833;28;20304;-82
2023/07/05 09:04:32;;;;;;;1.02;0.85;;;12.60;99.90;;;;;;5049071;28;20038;-81
2023/07/05 09:07:12;;;;;;;1.50;0.98;;;12.50;99.90;;;;;;5022016;28;20052;-82
2023/07/05 09:09:48;;;;;;;4.03;1.05;;;12.50;99.90;;;;;;5012295;28;20040;-82
2023/07/05 09:12:39;;;;;;;5.90;1.20;;;12.50;99.90;;;;;;4999844;28;20036;-82
2023/07/05 09:15:23;;;;;;;4.72;1.30;;;12.60;99.90;;;;;;5025850;28;20041;-82
2023/07/05 09:17:55;;;;;;;3.15;1.00;;;12.80;99.90;;;;;;5034614;28;20501;-81
2023/07/05 09:20:36;;;;;;;3.05;1.20;;;12.90;99.90;;;;;;5027779;28;20049;-82
2023/07/05 09:23:09;;;;;;;3.90;1.70;;;13.00;99.90;;;;;;5014843;28;20076;-82
2023/07/05 09:25:38;;;;;;;6.22;2.00;;;13.30;99.90;;;;;;5001059;28;20288;-81
2023/07/05 09:28:21;;;;;;;7.50;1.70;;;13.40;99.90;;;;;;5000335;28;20699;-81
2023/07/05 09:30:47;;;;;;;11.60;1.90;;;13.50;99.90;;;;;;5024959;28;20431;-81
2023/07/05 09:33:22;;;;;;;11.85;2.22;;;13.30;99.90;;;;;;5025471;28;20030;-81
2023/07/05 09:35:49;;;;;;;8.80;2.10;;;13.40;99.90;;;;;;5020759;28;20033;-81
2023/07/05 09:38:29;;;;;;;7.80;1.70;;;13.60;99.90;;;;;;5010675;28;20406;-81
2023/07/05 09:41:04;;;;;;;6.00;1.90;;;13.70;99.90;;;;;;5023999;28;20061;-81
2023/07/05 09:43:31;;;;;;;;;;;13.80;99.90;;;;;;5024436;28;20045;-81
2023/07/05 09:46:00;;;;;;;6.32;1.70;;;13.90;99.90;;;;;;5023068;28;20005;-81
2023/07/05 09:48:29;;;;;;;4.95;1.48;;;13.90;99.90;;;;;;5004493;28;20234;-81
2023/07/05 09:50:54;;;;;;;5.05;0.70;;;14.00;99.90;;;;;;5023608;28;20052;-82
2023/07/05 09:53:43;;;;;;;5.93;1.02;;;14.10;99.90;;;;;;5040581;28;20042;-81
2023/07/05 09:56:29;;;;;;;4.40;0.82;;;14.30;99.90;;;;;;5022877;28;20088;-81
2023/07/05 09:59:15;;;;;;;;;;;14.50;99.90;;;;;;5030045;28;20104;-81
2023/07/05 10:01:44;;;;;;;;;;;14.70;99.90;;;;;;5038763;28;19913;-81
2023/07/05 10:04:10;;;;;;;3.95;0.63;;;14.80;99.90;;;;;;5006164;28;20159;-81
2023/07/05 10:06:41;;;;;;;6.43;0.63;;;14.90;99.90;;;;;;5035341;28;20103;-81
2023/07/05 10:09:19;;;;;;;4.53;0.57;;;15.00;99.90;;;;;;5028889;28;20092;-81
2023/07/05 10:11:53;;;;;;;7.13;0.75;;;15.30;99.90;;;;;;5018364;28;20519;-81
2023/07/05 10:14:27;;;;;;;5.53;0.70;;;15.50;99.90;;;;;;5025486;28;20028;-81
2023/07/05 10:16:53;;;;;;;2.70;0.70;;;15.70;99.90;;;;;;5029706;28;20037;-81
2023/07/05 10:19:40;;;;;;;1.98;1.08;;;16.10;99.90;;;;;;5037224;28;20651;-81
2023/07/05 10:22:25;;;;;;;5.00;0.60;;;16.00;99.90;;;;;;5053779;28;20159;-81
2023/07/05 10:24:53;;;;;;;;;;;16.20;99.90;;;;;;5017359;28;20509;-81
2023/07/05 10:27:27;;;;;;;4.07;0.90;;;16.40;99.90;;;;;;5024799;28;20422;-81
2023/07/05 10:30:05;;;;;;;3.93;1.10;;;16.80;99.90;;;;;;5026003;28;20038;-82
2023/07/05 10:32:31;;;;;;;1.27;0.45;;;17.10;99.90;;;;;;4999796;28;20614;-81
2023/07/05 10:34:58;;;;;;;7.57;0.90;;;17.30;99.90;;;;;;5020257;28;20058;-81
2023/07/05 10:37:36;;;;;;;8.90;0.93;;;17.30;99.90;;;;;;5021277;28;20049;-81
2023/07/05 10:40:05;;;;;;;2.95;0.70;;;17.30;99.90;;;;;;5028198;28;20069;-81
2023/07/05 10:42:35;;;;;;;4.82;0.85;;;17.80;99.90;;;;;;5028082;28;20121;-81
2023/07/05 10:45:03;;;;;;;3.83;0.88;;;17.90;99.90;;;;;;5045570;28;20041;-81
2023/07/05 10:47:31;;;;;;;3.42;0.75;;;17.70;99.90;;;;;;5019786;28;20124;-81
2023/07/05 10:50:04;;;;;;;3.50;0.60;;;17.50;99.90;;;;;;5020836;28;20560;-80
2023/07/05 10:52:33;;;;;;;4.45;0.98;;;17.40;99.90;;;;;;5019169;28;20112;-81
2023/07/05 10:55:23;;;;;;;3.35;0.82;;;17.20;99.90;;;;;;5020336;28;20046;-80
2023/07/05 10:58:00;;;;;;;2.50;1.00;;;17.10;99.90;;;;;;5019820;28;20040;-80
2023/07/05 11:00:38;;;;;;;2.50;0.70;;;17.40;99.90;;;;;;5053669;28;20079;-81
2023/07/05 11:03:23;;;;;;;4.68;1.13;;;17.40;99.90;;;;;;5022371;28;20092;-81
2023/07/05 11:05:50;;;;;;;;;;;17.80;99.90;;;;;;5035635;28;20042;-80
2023/07/05 11:08:39;;;;;;;3.00;1.00;;;18.10;99.90;;;;;;5052461;28;20403;-81
2023/07/05 11:11:15;;;;;;;2.95;0.80;;;18.00;99.90;;;;;;5024305;28;20045;-80
2023/07/05 11:13:42;;;;;;;2.85;0.80;;;17.80;99.90;;;;;;5049753;28;20042;-80
2023/07/05 11:16:15;;;;;;;3.53;0.93;;;17.90;99.90;;;;;;5005647;28;20048;-80
2023/07/05 11:18:41;;;;;;;4.05;0.90;;;18.00;99.90;;;;;;5025459;28;20481;-80
2023/07/05 11:21:40;;;;;;;3.97;0.80;;;18.00;99.90;;;;;;5006338;28;20190;-80
2023/07/05 11:24:08;;;;;;;3.72;0.85;;;17.80;99.90;;;;;;5021862;28;20041;-81
2023/07/05 11:26:42;;;;;;;2.90;1.10;;;17.90;99.90;;;;;;5025420;28;20048;-80
2023/07/05 11:29:26;;;;;;;7.30;1.17;;;18.30;99.90;;;;;;5052213;28;20037;-80
2023/07/05 11:31:52;;;;;;;2.88;0.95;;;18.50;99.90;;;;;;5039332;28;20528;-80
2023/07/05 11:34:21;;;;;;;6.50;1.13;;;19.00;99.90;;;;;;5052880;28;20041;-80
2023/07/05 11:36:50;;;;;;;5.65;1.00;;;19.50;99.90;;;;;;5051695;28;20079;-82
2023/07/05 11:39:43;;;;;;;3.05;1.10;;;20.00;99.90;;;;;;5028592;28;20037;-80
2023/07/05 11:42:12;;;;;;;4.53;0.98;;;19.90;99.90;;;;;;5023357;28;20635;-80
2023/07/05 11:44:57;;;;;;;6.78;1.30;;;19.80;99.90;;;;;;5034243;28;20103;-81
2023/07/05 11:47:23;;;;;;;4.57;1.10;;;19.30;99.90;;;;;;5020635;28;20072;-80
2023/07/05 11:50:07;;;;;;;4.22;1.38;;;19.30;99.90;;;;;;5034600;28;20442;-80
2023/07/05 11:52:41;;;;;;;4.93;1.45;;;19.10;99.90;;;;;;5024364;28;20037;-81
2023/07/05 11:55:24;;;;;;;3.05;1.17;;;18.00;99.90;;;;;;5039135;28;20077;-81
2023/07/05 11:58:08;;;;;;;3.28;1.02;;;17.50;99.90;;;;;;5024796;28;20052;-80
2023/07/05 12:00:40;;;;;;;6.35;1.48;;;17.50;99.90;;;;;;5054609;28;20260;-80
2023/07/05 12:03:21;;;;;;;6.18;1.50;;;17.70;99.90;;;;;;5024426;28;20036;-80
2023/07/05 12:06:10;;;;;;;6.20;1.48;;;17.50;99.90;;;;;;5023887;28;20068;-81
2023/07/05 12:08:46;;;;;;;4.57;1.20;;;17.10;99.90;;;;;;5026633;28;20555;-81
2023/07/05 12:11:14;;;;;;;3.42;1.35;;;16.50;99.90;;;;;;5036125;28;20057;-82
2023/07/05 12:13:41;;;;;;;6.15;1.60;;;15.90;99.90;;;;;;5000290;28;20047;-82
2023/07/05 12:16:14;;;;;;;3.50;0.98;;;15.40;99.90;;;;;;5024290;28;20072;-81
2023/07/05 12:18:41;;;;;;;3.58;1.40;;;14.80;99.90;;;;;;5053622;28;20041;-82
2023/07/05 12:21:07;;;;;;;3.58;1.58;;;14.50;99.90;;;;;;5050181;28;20118;-83
2023/07/05 12:23:36;;;;;;;2.72;1.23;;;14.50;99.90;;;;;;5033180;28;20466;-83
2023/07/05 12:26:20;;;;;;;4.95;1.50;;;14.40;99.90;;;;;;5024569;28;20041;-83
2023/07/05 12:28:47;;;;;;;3.65;1.25;;;14.20;99.90;;;;;;5034830;28;20029;-82
2023/07/05 12:31:13;;;;;;;4.70;1.50;;;13.90;99.90;;;;;;5025877;28;20148;-82
2023/07/05 12:33:39;;;;;;;4.72;1.63;;;13.90;99.90;;;;;;5023568;28;20405;-83
2023/07/05 12:36:13;;;;;;;4.20;1.50;;;13.80;99.90;;;;;;5009199;28;20053;-83
2023/07/05 12:38:41;;;;;;;4.70;1.67;;;13.50;99.90;;;;;;5024113;28;20044;-82
2023/07/05 12:41:16;;;;;;;6.10;2.17;;;13.50;99.90;;;;;;5018435;28;20058;-82
2023/07/05 12:43:42;;;;;;;2.97;1.30;;;13.50;99.90;;;;;;5036784;28;20136;-82
2023/07/05 12:46:15;;;;;;;3.55;1.67;;;13.30;99.90;;;;;;5025501;28;20075;-82
2023/07/05 12:48:42;;;;;;;4.25;1.70;;;13.30;99.90;;;;;;5021963;28;20132;-81
2023/07/05 12:51:21;;;;;;;3.80;1.40;;;13.30;99.90;;;;;;5046341;28;20187;-81
2023/07/05 12:53:52;;;;;;;4.90;1.55;;;13.40;99.90;;;;;;5054096;28;20676;-82
2023/07/05 12:56:22;;;;;;;4.05;1.65;;;13.50;99.90;;;;;;5016202;28;20044;-82
2023/07/05 12:58:54;;;;;;;4.93;1.48;;;13.60;99.90;;;;;;5034307;28;20725;-82
2023/07/05 13:01:24;;;;;;;10.32;2.03;;;13.60;99.90;;;;;;5034816;28;20034;-81